sensor_id;sensor_type;location;lat;lon;timestamp;P1;durP1;ratioP1;P2;durP2;ratioP2
13222;SDS011;6676;45.192;5.722;2023-04-01T00:01:46;2.30;;;0.95;;
13222;SDS011;6676;45.192;5.722;2023-04-01T00:04:38;2.72;;;0.95;;
13222;SDS011;6676;45.192;5.722;2023-04-01T00:07:30;1.85;;;0.93;;
13222;SDS011;6676;45.192;5.722;2023-04-01T00:10:21;2.17;;;1.02;;
13222;SDS011;6676;45.192;5.722;2023-04-01T00:13:13;2.27;;;1.22;;
13222;SDS011;6676;45.192;5.722;2023-04-01T00:16:05;3.12;;;1.10;;
13222;SDS011;6676;45.192;5.722;2023-04-01T00:18:58;2.83;;;1.00;;
13222;SDS011;6676;45.192;5.722;2023-04-01T00:21:51;2.72;;;0.85;;
13222;SDS011;6676;45.192;5.722;2023-04-01T00:24:43;1.98;;;0.80;;
13222;SDS011;6676;45.192;5.722;2023-04-01T00:27:35;2.98;;;1.35;;
13222;SDS011;6676;45.192;5.722;2023-04-01T00:30:26;2.92;;;0.80;;
13222;SDS011;6676;45.192;5.722;2023-04-01T00:33:18;1.87;;;0.72;;
13222;SDS011;6676;45.192;5.722;2023-04-01T00:36:10;2.72;;;0.80;;
13222;SDS011;6676;45.192;5.722;2023-04-01T00:39:03;2.20;;;1.10;;
13222;SDS011;6676;45.192;5.722;2023-04-01T00:41:54;3.85;;;1.10;;
13222;SDS011;6676;45.192;5.722;2023-04-01T00:44:49;2.12;;;1.02;;
13222;SDS011;6676;45.192;5.722;2023-04-01T00:47:42;2.70;;;0.93;;
13222;SDS011;6676;45.192;5.722;2023-04-01T00:50:33;3.05;;;1.07;;
13222;SDS011;6676;45.192;5.722;2023-04-01T00:53:26;2.25;;;0.85;;
13222;SDS011;6676;45.192;5.722;2023-04-01T00:56:21;3.87;;;1.00;;
13222;SDS011;6676;45.192;5.722;2023-04-01T00:59:02;2.98;;;1.00;;
13222;SDS011;6676;45.192;5.722;2023-04-01T01:01:56;2.58;;;1.20;;
13222;SDS011;6676;45.192;5.722;2023-04-01T01:04:48;2.25;;;0.80;;
13222;SDS011;6676;45.192;5.722;2023-04-01T01:07:41;2.58;;;0.85;;
13222;SDS011;6676;45.192;5.722;2023-04-01T01:10:34;4.05;;;1.17;;
13222;SDS011;6676;45.192;5.722;2023-04-01T01:13:29;1.90;;;0.80;;
13222;SDS011;6676;45.192;5.722;2023-04-01T01:16:24;2.77;;;0.90;;
13222;SDS011;6676;45.192;5.722;2023-04-01T01:19:10;1.85;;;1.00;;
13222;SDS011;6676;45.192;5.722;2023-04-01T01:22:12;3.75;;;0.93;;
13222;SDS011;6676;45.192;5.722;2023-04-01T01:25:13;1.90;;;1.02;;
13222;SDS011;6676;45.192;5.722;2023-04-01T01:28:24;2.52;;;1.07;;
13222;SDS011;6676;45.192;5.722;2023-04-01T01:31:19;2.95;;;1.00;;
13222;SDS011;6676;45.192;5.722;2023-04-01T01:34:16;2.30;;;0.98;;
13222;SDS011;6676;45.192;5.722;2023-04-01T01:37:10;2.95;;;1.05;;
13222;SDS011;6676;45.192;5.722;2023-04-01T01:40:05;4.92;;;1.20;;
13222;SDS011;6676;45.192;5.722;2023-04-01T01:43:02;2.92;;;0.85;;
13222;SDS011;6676;45.192;5.722;2023-04-01T01:45:55;2.60;;;0.88;;
13222;SDS011;6676;45.192;5.722;2023-04-01T01:48:50;2.72;;;1.00;;
13222;SDS011;6676;45.192;5.722;2023-04-01T01:51:43;3.08;;;1.25;;
13222;SDS011;6676;45.192;5.722;2023-04-01T01:54:36;4.65;;;0.90;;
13222;SDS011;6676;45.192;5.722;2023-04-01T01:57:41;3.55;;;0.85;;
13222;SDS011;6676;45.192;5.722;2023-04-01T02:00:36;4.85;;;0.98;;
13222;SDS011;6676;45.192;5.722;2023-04-01T02:03:29;2.98;;;0.88;;
13222;SDS011;6676;45.192;5.722;2023-04-01T02:06:26;3.67;;;0.85;;
13222;SDS011;6676;45.192;5.722;2023-04-01T02:09:18;3.47;;;1.10;;
13222;SDS011;6676;45.192;5.722;2023-04-01T02:12:10;2.17;;;0.82;;
13222;SDS011;6676;45.192;5.722;2023-04-01T02:15:05;3.77;;;1.00;;
13222;SDS011;6676;45.192;5.722;2023-04-01T02:17:59;5.70;;;1.30;;
13222;SDS011;6676;45.192;5.722;2023-04-01T02:20:52;7.67;;;1.30;;
13222;SDS011;6676;45.192;5.722;2023-04-01T02:23:45;2.98;;;0.80;;
13222;SDS011;6676;45.192;5.722;2023-04-01T02:26:36;2.75;;;0.90;;
13222;SDS011;6676;45.192;5.722;2023-04-01T02:29:29;1.92;;;0.80;;
13222;SDS011;6676;45.192;5.722;2023-04-01T02:32:21;1.70;;;0.82;;
13222;SDS011;6676;45.192;5.722;2023-04-01T02:35:14;2.55;;;0.85;;
13222;SDS011;6676;45.192;5.722;2023-04-01T02:38:07;2.02;;;0.98;;
13222;SDS011;6676;45.192;5.722;2023-04-01T02:41:03;2.75;;;1.00;;
13222;SDS011;6676;45.192;5.722;2023-04-01T02:43:55;2.47;;;0.75;;
13222;SDS011;6676;45.192;5.722;2023-04-01T02:46:47;4.30;;;0.78;;
13222;SDS011;6676;45.192;5.722;2023-04-01T02:49:39;2.27;;;0.70;;
13222;SDS011;6676;45.192;5.722;2023-04-01T02:52:31;4.30;;;0.95;;
13222;SDS011;6676;45.192;5.722;2023-04-01T02:55:22;3.08;;;1.02;;
13222;SDS011;6676;45.192;5.722;2023-04-01T02:58:14;1.47;;;0.70;;
13222;SDS011;6676;45.192;5.722;2023-04-01T03:01:05;2.92;;;0.98;;
13222;SDS011;6676;45.192;5.722;2023-04-01T03:03:57;2.67;;;1.05;;
13222;SDS011;6676;45.192;5.722;2023-04-01T03:06:48;2.92;;;0.98;;
13222;SDS011;6676;45.192;5.722;2023-04-01T03:09:39;4.45;;;1.00;;
13222;SDS011;6676;45.192;5.722;2023-04-01T03:12:31;3.00;;;1.10;;
13222;SDS011;6676;45.192;5.722;2023-04-01T03:15:22;2.25;;;0.90;;
13222;SDS011;6676;45.192;5.722;2023-04-01T03:18:14;4.17;;;1.30;;
13222;SDS011;6676;45.192;5.722;2023-04-01T03:21:13;3.80;;;1.30;;
13222;SDS011;6676;45.192;5.722;2023-04-01T03:24:06;3.05;;;1.40;;
13222;SDS011;6676;45.192;5.722;2023-04-01T03:26:57;3.33;;;1.20;;
13222;SDS011;6676;45.192;5.722;2023-04-01T03:29:50;4.97;;;1.47;;
13222;SDS011;6676;45.192;5.722;2023-04-01T03:32:41;2.90;;;1.12;;
13222;SDS011;6676;45.192;5.722;2023-04-01T03:35:32;2.87;;;1.12;;
13222;SDS011;6676;45.192;5.722;2023-04-01T03:38:24;2.33;;;0.93;;
13222;SDS011;6676;45.192;5.722;2023-04-01T03:41:16;3.37;;;1.12;;
13222;SDS011;6676;45.192;5.722;2023-04-01T03:44:08;3.17;;;1.00;;
13222;SDS011;6676;45.192;5.722;2023-04-01T03:49:38;2.65;;;1.05;;
13222;SDS011;6676;45.192;5.722;2023-04-01T03:52:29;3.05;;;0.98;;
13222;SDS011;6676;45.192;5.722;2023-04-01T03:55:21;3.15;;;1.25;;
13222;SDS011;6676;45.192;5.722;2023-04-01T03:58:12;3.47;;;1.02;;
13222;SDS011;6676;45.192;5.722;2023-04-01T04:01:12;2.02;;;1.00;;
13222;SDS011;6676;45.192;5.722;2023-04-01T04:04:04;3.10;;;1.20;;
13222;SDS011;6676;45.192;5.722;2023-04-01T04:06:56;2.98;;;1.05;;
13222;SDS011;6676;45.192;5.722;2023-04-01T04:09:48;3.22;;;1.10;;
13222;SDS011;6676;45.192;5.722;2023-04-01T04:12:40;5.08;;;1.47;;
13222;SDS011;6676;45.192;5.722;2023-04-01T04:15:31;2.65;;;1.15;;
13222;SDS011;6676;45.192;5.722;2023-04-01T04:18:22;2.05;;;1.00;;
13222;SDS011;6676;45.192;5.722;2023-04-01T04:21:14;2.90;;;0.90;;
13222;SDS011;6676;45.192;5.722;2023-04-01T04:24:06;2.62;;;0.82;;
13222;SDS011;6676;45.192;5.722;2023-04-01T04:27:14;3.12;;;1.02;;
13222;SDS011;6676;45.192;5.722;2023-04-01T04:30:08;1.77;;;0.82;;
13222;SDS011;6676;45.192;5.722;2023-04-01T04:33:00;2.00;;;0.90;;
13222;SDS011;6676;45.192;5.722;2023-04-01T04:35:54;3.17;;;0.95;;
13222;SDS011;6676;45.192;5.722;2023-04-01T04:38:34;2.20;;;0.93;;
13222;SDS011;6676;45.192;5.722;2023-04-01T04:41:26;4.58;;;1.02;;
13222;SDS011;6676;45.192;5.722;2023-04-01T04:44:17;3.33;;;1.02;;
13222;SDS011;6676;45.192;5.722;2023-04-01T04:47:09;4.45;;;1.35;;
13222;SDS011;6676;45.192;5.722;2023-04-01T04:50:00;4.37;;;1.30;;
13222;SDS011;6676;45.192;5.722;2023-04-01T04:52:52;5.35;;;1.27;;
13222;SDS011;6676;45.192;5.722;2023-04-01T04:55:44;5.28;;;1.00;;
13222;SDS011;6676;45.192;5.722;2023-04-01T04:58:47;3.40;;;1.12;;
13222;SDS011;6676;45.192;5.722;2023-04-01T05:01:40;3.20;;;1.20;;
13222;SDS011;6676;45.192;5.722;2023-04-01T05:04:34;3.00;;;1.32;;
13222;SDS011;6676;45.192;5.722;2023-04-01T05:07:29;5.05;;;1.07;;
13222;SDS011;6676;45.192;5.722;2023-04-01T05:10:21;5.15;;;1.50;;
13222;SDS011;6676;45.192;5.722;2023-04-01T05:13:12;4.62;;;1.02;;
13222;SDS011;6676;45.192;5.722;2023-04-01T05:16:08;1.95;;;1.00;;
13222;SDS011;6676;45.192;5.722;2023-04-01T05:19:00;2.58;;;1.07;;
13222;SDS011;6676;45.192;5.722;2023-04-01T05:21:52;2.95;;;1.30;;
13222;SDS011;6676;45.192;5.722;2023-04-01T05:24:43;4.42;;;1.80;;
13222;SDS011;6676;45.192;5.722;2023-04-01T05:27:35;3.80;;;1.20;;
13222;SDS011;6676;45.192;5.722;2023-04-01T05:30:27;2.42;;;1.10;;
13222;SDS011;6676;45.192;5.722;2023-04-01T05:33:20;3.55;;;1.22;;
13222;SDS011;6676;45.192;5.722;2023-04-01T05:36:13;3.17;;;1.40;;
13222;SDS011;6676;45.192;5.722;2023-04-01T05:39:06;2.98;;;1.37;;
13222;SDS011;6676;45.192;5.722;2023-04-01T05:41:58;3.25;;;1.25;;
13222;SDS011;6676;45.192;5.722;2023-04-01T05:44:49;2.75;;;1.15;;
13222;SDS011;6676;45.192;5.722;2023-04-01T05:47:59;3.17;;;1.22;;
13222;SDS011;6676;45.192;5.722;2023-04-01T05:50:52;3.37;;;1.10;;
13222;SDS011;6676;45.192;5.722;2023-04-01T05:53:43;4.00;;;1.50;;
13222;SDS011;6676;45.192;5.722;2023-04-01T05:56:35;6.05;;;2.00;;
13222;SDS011;6676;45.192;5.722;2023-04-01T05:59:26;2.60;;;1.15;;
13222;SDS011;6676;45.192;5.722;2023-04-01T06:02:19;4.20;;;1.52;;
13222;SDS011;6676;45.192;5.722;2023-04-01T06:05:02;3.10;;;1.20;;
13222;SDS011;6676;45.192;5.722;2023-04-01T06:08:06;3.75;;;1.30;;
13222;SDS011;6676;45.192;5.722;2023-04-01T06:11:01;4.60;;;1.40;;
13222;SDS011;6676;45.192;5.722;2023-04-01T06:13:59;3.87;;;1.55;;
13222;SDS011;6676;45.192;5.722;2023-04-01T06:17:00;3.10;;;1.32;;
13222;SDS011;6676;45.192;5.722;2023-04-01T06:19:56;2.85;;;1.00;;
13222;SDS011;6676;45.192;5.722;2023-04-01T06:22:55;4.75;;;1.37;;
13222;SDS011;6676;45.192;5.722;2023-04-01T06:26:13;3.37;;;1.25;;
13222;SDS011;6676;45.192;5.722;2023-04-01T06:29:19;3.27;;;1.10;;
13222;SDS011;6676;45.192;5.722;2023-04-01T06:32:30;2.47;;;1.00;;
13222;SDS011;6676;45.192;5.722;2023-04-01T06:35:41;3.55;;;1.10;;
13222;SDS011;6676;45.192;5.722;2023-04-01T06:41:54;4.40;;;1.50;;
13222;SDS011;6676;45.192;5.722;2023-04-01T06:44:58;4.03;;;1.90;;
13222;SDS011;6676;45.192;5.722;2023-04-01T06:48:14;3.87;;;2.02;;
13222;SDS011;6676;45.192;5.722;2023-04-01T06:51:33;4.65;;;1.95;;
13222;SDS011;6676;45.192;5.722;2023-04-01T06:54:36;3.55;;;1.32;;
13222;SDS011;6676;45.192;5.722;2023-04-01T06:57:49;3.22;;;1.60;;
13222;SDS011;6676;45.192;5.722;2023-04-01T07:03:29;2.65;;;1.25;;
13222;SDS011;6676;45.192;5.722;2023-04-01T07:06:10;3.80;;;1.20;;
13222;SDS011;6676;45.192;5.722;2023-04-01T07:09:06;4.15;;;1.60;;
13222;SDS011;6676;45.192;5.722;2023-04-01T07:12:21;3.70;;;1.37;;
13222;SDS011;6676;45.192;5.722;2023-04-01T07:15:22;7.03;;;1.30;;
13222;SDS011;6676;45.192;5.722;2023-04-01T07:18:16;2.83;;;1.32;;
13222;SDS011;6676;45.192;5.722;2023-04-01T07:21:13;3.35;;;1.40;;
13222;SDS011;6676;45.192;5.722;2023-04-01T07:24:10;2.70;;;1.17;;
13222;SDS011;6676;45.192;5.722;2023-04-01T07:30:00;2.85;;;1.20;;
13222;SDS011;6676;45.192;5.722;2023-04-01T07:32:54;3.72;;;1.20;;
13222;SDS011;6676;45.192;5.722;2023-04-01T07:35:49;4.30;;;1.37;;
13222;SDS011;6676;45.192;5.722;2023-04-01T07:38:46;4.60;;;1.42;;
13222;SDS011;6676;45.192;5.722;2023-04-01T07:41:29;4.97;;;1.52;;
13222;SDS011;6676;45.192;5.722;2023-04-01T07:44:25;2.10;;;0.90;;
13222;SDS011;6676;45.192;5.722;2023-04-01T07:47:26;3.22;;;1.20;;
13222;SDS011;6676;45.192;5.722;2023-04-01T07:50:25;4.80;;;1.40;;
13222;SDS011;6676;45.192;5.722;2023-04-01T07:53:19;4.25;;;1.77;;
13222;SDS011;6676;45.192;5.722;2023-04-01T07:56:15;4.75;;;1.50;;
13222;SDS011;6676;45.192;5.722;2023-04-01T07:59:10;4.22;;;1.85;;
13222;SDS011;6676;45.192;5.722;2023-04-01T08:02:14;4.55;;;1.50;;
13222;SDS011;6676;45.192;5.722;2023-04-01T08:05:10;4.20;;;2.37;;
13222;SDS011;6676;45.192;5.722;2023-04-01T08:07:55;3.67;;;1.60;;
13222;SDS011;6676;45.192;5.722;2023-04-01T08:10:54;2.67;;;1.40;;
13222;SDS011;6676;45.192;5.722;2023-04-01T08:14:07;3.20;;;1.42;;
13222;SDS011;6676;45.192;5.722;2023-04-01T08:17:21;3.50;;;1.30;;
13222;SDS011;6676;45.192;5.722;2023-04-01T08:20:18;3.52;;;2.05;;
13222;SDS011;6676;45.192;5.722;2023-04-01T08:23:16;4.00;;;2.12;;
13222;SDS011;6676;45.192;5.722;2023-04-01T08:26:12;2.75;;;1.15;;
13222;SDS011;6676;45.192;5.722;2023-04-01T08:29:07;2.80;;;1.62;;
13222;SDS011;6676;45.192;5.722;2023-04-01T08:32:01;2.80;;;1.15;;
13222;SDS011;6676;45.192;5.722;2023-04-01T08:35:02;3.02;;;1.50;;
13222;SDS011;6676;45.192;5.722;2023-04-01T08:37:51;2.27;;;1.10;;
13222;SDS011;6676;45.192;5.722;2023-04-01T08:40:56;4.05;;;1.17;;
13222;SDS011;6676;45.192;5.722;2023-04-01T08:43:58;2.05;;;0.72;;
13222;SDS011;6676;45.192;5.722;2023-04-01T08:47:14;2.02;;;0.80;;
13222;SDS011;6676;45.192;5.722;2023-04-01T08:50:33;1.98;;;0.72;;
13222;SDS011;6676;45.192;5.722;2023-04-01T08:53:47;2.70;;;1.10;;
13222;SDS011;6676;45.192;5.722;2023-04-01T08:57:03;3.55;;;1.25;;
13222;SDS011;6676;45.192;5.722;2023-04-01T08:59:59;3.37;;;0.85;;
13222;SDS011;6676;45.192;5.722;2023-04-01T09:09:31;3.47;;;1.60;;
13222;SDS011;6676;45.192;5.722;2023-04-01T09:15:45;5.47;;;1.35;;
13222;SDS011;6676;45.192;5.722;2023-04-01T09:18:47;3.30;;;1.40;;
13222;SDS011;6676;45.192;5.722;2023-04-01T09:28:33;3.37;;;1.00;;
13222;SDS011;6676;45.192;5.722;2023-04-01T09:31:26;2.62;;;0.82;;
13222;SDS011;6676;45.192;5.722;2023-04-01T09:35:03;1.37;;;1.00;;
13222;SDS011;6676;45.192;5.722;2023-04-01T09:38:03;2.27;;;1.12;;
13222;SDS011;6676;45.192;5.722;2023-04-01T09:40:56;2.50;;;1.00;;
13222;SDS011;6676;45.192;5.722;2023-04-01T09:43:56;2.00;;;0.53;;
13222;SDS011;6676;45.192;5.722;2023-04-01T09:46:45;2.83;;;0.50;;
13222;SDS011;6676;45.192;5.722;2023-04-01T09:49:44;2.37;;;0.60;;
13222;SDS011;6676;45.192;5.722;2023-04-01T09:52:44;1.40;;;0.40;;
13222;SDS011;6676;45.192;5.722;2023-04-01T09:59:50;1.52;;;0.50;;
13222;SDS011;6676;45.192;5.722;2023-04-01T10:03:20;2.27;;;0.78;;
13222;SDS011;6676;45.192;5.722;2023-04-01T10:06:48;2.52;;;0.70;;
13222;SDS011;6676;45.192;5.722;2023-04-01T10:10:22;2.87;;;0.82;;
13222;SDS011;6676;45.192;5.722;2023-04-01T10:13:37;1.70;;;0.50;;
13222;SDS011;6676;45.192;5.722;2023-04-01T10:20:42;2.58;;;0.50;;
13222;SDS011;6676;45.192;5.722;2023-04-01T10:27:20;1.85;;;0.50;;
13222;SDS011;6676;45.192;5.722;2023-04-01T10:30:43;2.08;;;0.95;;
13222;SDS011;6676;45.192;5.722;2023-04-01T10:40:54;2.60;;;0.70;;
13222;SDS011;6676;45.192;5.722;2023-04-01T10:51:26;2.52;;;0.72;;
13222;SDS011;6676;45.192;5.722;2023-04-01T10:54:40;1.70;;;0.88;;
13222;SDS011;6676;45.192;5.722;2023-04-01T10:58:00;3.05;;;0.70;;
13222;SDS011;6676;45.192;5.722;2023-04-01T11:01:23;2.55;;;0.68;;
13222;SDS011;6676;45.192;5.722;2023-04-01T11:16:02;1.30;;;0.53;;
13222;SDS011;6676;45.192;5.722;2023-04-01T11:22:46;1.10;;;0.40;;
13222;SDS011;6676;45.192;5.722;2023-04-01T11:26:02;1.37;;;0.35;;
13222;SDS011;6676;45.192;5.722;2023-04-01T11:32:43;1.50;;;0.50;;
13222;SDS011;6676;45.192;5.722;2023-04-01T11:35:51;1.30;;;0.55;;
13222;SDS011;6676;45.192;5.722;2023-04-01T11:38:57;1.72;;;0.40;;
13222;SDS011;6676;45.192;5.722;2023-04-01T11:42:17;1.07;;;0.60;;
13222;SDS011;6676;45.192;5.722;2023-04-01T11:45:32;1.72;;;0.50;;
13222;SDS011;6676;45.192;5.722;2023-04-01T11:48:39;1.22;;;0.50;;
13222;SDS011;6676;45.192;5.722;2023-04-01T11:51:59;1.90;;;0.60;;
13222;SDS011;6676;45.192;5.722;2023-04-01T11:55:05;1.15;;;0.50;;
13222;SDS011;6676;45.192;5.722;2023-04-01T11:58:15;2.27;;;0.53;;
13222;SDS011;6676;45.192;5.722;2023-04-01T12:01:25;2.10;;;0.20;;
13222;SDS011;6676;45.192;5.722;2023-04-01T12:10:50;1.07;;;0.30;;
13222;SDS011;6676;45.192;5.722;2023-04-01T12:13:47;0.88;;;0.15;;
13222;SDS011;6676;45.192;5.722;2023-04-01T12:16:45;1.72;;;0.90;;
13222;SDS011;6676;45.192;5.722;2023-04-01T12:19:43;0.23;;;0.20;;
13222;SDS011;6676;45.192;5.722;2023-04-01T12:22:40;0.70;;;0.30;;
13222;SDS011;6676;45.192;5.722;2023-04-01T12:28:54;0.70;;;0.30;;
13222;SDS011;6676;45.192;5.722;2023-04-01T12:31:57;0.88;;;0.30;;
13222;SDS011;6676;45.192;5.722;2023-04-01T12:34:57;0.98;;;0.40;;
13222;SDS011;6676;45.192;5.722;2023-04-01T12:38:10;1.22;;;0.37;;
13222;SDS011;6676;45.192;5.722;2023-04-01T12:40:56;0.82;;;0.30;;
13222;SDS011;6676;45.192;5.722;2023-04-01T12:44:23;0.78;;;0.40;;
13222;SDS011;6676;45.192;5.722;2023-04-01T12:47:16;0.75;;;0.30;;
13222;SDS011;6676;45.192;5.722;2023-04-01T12:50:28;1.50;;;0.30;;
13222;SDS011;6676;45.192;5.722;2023-04-01T12:53:32;1.00;;;0.30;;
13222;SDS011;6676;45.192;5.722;2023-04-01T12:56:31;0.82;;;0.30;;
13222;SDS011;6676;45.192;5.722;2023-04-01T12:59:30;1.42;;;0.50;;
13222;SDS011;6676;45.192;5.722;2023-04-01T13:02:30;1.75;;;0.50;;
13222;SDS011;6676;45.192;5.722;2023-04-01T13:05:33;1.80;;;0.50;;
13222;SDS011;6676;45.192;5.722;2023-04-01T13:08:35;1.62;;;0.47;;
13222;SDS011;6676;45.192;5.722;2023-04-01T13:11:33;1.15;;;0.40;;
13222;SDS011;6676;45.192;5.722;2023-04-01T13:14:34;0.47;;;0.35;;
13222;SDS011;6676;45.192;5.722;2023-04-01T13:17:32;1.45;;;0.62;;
13222;SDS011;6676;45.192;5.722;2023-04-01T13:20:30;0.68;;;0.28;;
13222;SDS011;6676;45.192;5.722;2023-04-01T13:23:32;1.50;;;0.50;;
13222;SDS011;6676;45.192;5.722;2023-04-01T13:29:19;1.87;;;0.23;;
13222;SDS011;6676;45.192;5.722;2023-04-01T13:32:19;0.82;;;0.37;;
13222;SDS011;6676;45.192;5.722;2023-04-01T13:35:22;0.57;;;0.28;;
13222;SDS011;6676;45.192;5.722;2023-04-01T13:38:22;1.65;;;0.90;;
13222;SDS011;6676;45.192;5.722;2023-04-01T13:41:38;0.62;;;0.40;;
13222;SDS011;6676;45.192;5.722;2023-04-01T13:44:37;1.55;;;0.42;;
13222;SDS011;6676;45.192;5.722;2023-04-01T13:51:07;0.82;;;0.40;;
13222;SDS011;6676;45.192;5.722;2023-04-01T13:54:00;0.60;;;0.33;;
13222;SDS011;6676;45.192;5.722;2023-04-01T13:57:16;0.82;;;0.30;;
13222;SDS011;6676;45.192;5.722;2023-04-01T14:06:38;0.15;;;0.10;;
13222;SDS011;6676;45.192;5.722;2023-04-01T14:13:05;0.60;;;0.28;;
13222;SDS011;6676;45.192;5.722;2023-04-01T14:16:08;0.88;;;0.30;;
13222;SDS011;6676;45.192;5.722;2023-04-01T14:19:24;0.80;;;0.47;;
13222;SDS011;6676;45.192;5.722;2023-04-01T14:22:23;1.90;;;0.50;;
13222;SDS011;6676;45.192;5.722;2023-04-01T14:25:21;1.32;;;0.40;;
13222;SDS011;6676;45.192;5.722;2023-04-01T14:28:26;1.92;;;0.50;;
13222;SDS011;6676;45.192;5.722;2023-04-01T14:31:23;0.20;;;0.20;;
13222;SDS011;6676;45.192;5.722;2023-04-01T14:34:22;0.47;;;0.20;;
13222;SDS011;6676;45.192;5.722;2023-04-01T14:37:25;0.95;;;0.20;;
13222;SDS011;6676;45.192;5.722;2023-04-01T14:40:28;1.70;;;0.50;;
13222;SDS011;6676;45.192;5.722;2023-04-01T14:49:55;0.93;;;0.30;;
13222;SDS011;6676;45.192;5.722;2023-04-01T14:52:58;0.65;;;0.20;;
13222;SDS011;6676;45.192;5.722;2023-04-01T14:58:44;0.20;;;0.20;;
13222;SDS011;6676;45.192;5.722;2023-04-01T15:01:40;1.37;;;0.20;;
13222;SDS011;6676;45.192;5.722;2023-04-01T15:10:52;0.00;;;0.00;;
13222;SDS011;6676;45.192;5.722;2023-04-01T15:13:58;0.50;;;0.10;;
13222;SDS011;6676;45.192;5.722;2023-04-01T15:17:01;0.57;;;0.20;;
13222;SDS011;6676;45.192;5.722;2023-04-01T15:23:18;0.45;;;0.08;;
13222;SDS011;6676;45.192;5.722;2023-04-01T15:26:16;1.50;;;0.30;;
13222;SDS011;6676;45.192;5.722;2023-04-01T15:29:18;0.98;;;0.42;;
13222;SDS011;6676;45.192;5.722;2023-04-01T15:32:17;0.65;;;0.33;;
13222;SDS011;6676;45.192;5.722;2023-04-01T15:35:15;1.50;;;0.50;;
13222;SDS011;6676;45.192;5.722;2023-04-01T15:38:14;5.10;;;1.60;;
13222;SDS011;6676;45.192;5.722;2023-04-01T15:41:11;3.27;;;0.82;;
13222;SDS011;6676;45.192;5.722;2023-04-01T15:44:24;3.27;;;1.40;;
13222;SDS011;6676;45.192;5.722;2023-04-01T15:50:28;1.55;;;0.60;;
13222;SDS011;6676;45.192;5.722;2023-04-01T15:53:30;1.22;;;0.50;;
13222;SDS011;6676;45.192;5.722;2023-04-01T15:56:39;2.90;;;0.70;;
13222;SDS011;6676;45.192;5.722;2023-04-01T15:59:58;1.20;;;0.60;;
13222;SDS011;6676;45.192;5.722;2023-04-01T16:06:17;1.80;;;1.02;;
13222;SDS011;6676;45.192;5.722;2023-04-01T16:09:49;1.10;;;0.57;;
13222;SDS011;6676;45.192;5.722;2023-04-01T16:13:00;1.98;;;1.77;;
13222;SDS011;6676;45.192;5.722;2023-04-01T16:18:48;1.17;;;0.70;;
13222;SDS011;6676;45.192;5.722;2023-04-01T16:24:24;0.68;;;0.57;;
13222;SDS011;6676;45.192;5.722;2023-04-01T16:27:25;2.47;;;0.80;;
13222;SDS011;6676;45.192;5.722;2023-04-01T16:30:33;1.47;;;0.70;;
13222;SDS011;6676;45.192;5.722;2023-04-01T16:33:31;1.27;;;0.40;;
13222;SDS011;6676;45.192;5.722;2023-04-01T16:36:26;0.40;;;0.30;;
13222;SDS011;6676;45.192;5.722;2023-04-01T16:42:08;0.20;;;0.20;;
13222;SDS011;6676;45.192;5.722;2023-04-01T16:45:22;0.20;;;0.20;;
13222;SDS011;6676;45.192;5.722;2023-04-01T16:48:10;0.45;;;0.10;;
13222;SDS011;6676;45.192;5.722;2023-04-01T16:51:08;0.28;;;0.23;;
13222;SDS011;6676;45.192;5.722;2023-04-01T16:54:02;0.23;;;0.08;;
13222;SDS011;6676;45.192;5.722;2023-04-01T16:57:03;1.27;;;0.70;;
13222;SDS011;6676;45.192;5.722;2023-04-01T16:59:59;0.47;;;0.30;;
13222;SDS011;6676;45.192;5.722;2023-04-01T17:02:57;1.55;;;0.50;;
13222;SDS011;6676;45.192;5.722;2023-04-01T17:05:44;0.55;;;0.03;;
13222;SDS011;6676;45.192;5.722;2023-04-01T17:11:44;0.30;;;0.20;;
13222;SDS011;6676;45.192;5.722;2023-04-01T17:14:38;1.02;;;0.20;;
13222;SDS011;6676;45.192;5.722;2023-04-01T17:17:40;1.00;;;0.50;;
13222;SDS011;6676;45.192;5.722;2023-04-01T17:20:38;0.30;;;0.23;;
13222;SDS011;6676;45.192;5.722;2023-04-01T17:23:32;0.72;;;0.30;;
13222;SDS011;6676;45.192;5.722;2023-04-01T17:26:27;0.75;;;0.33;;
13222;SDS011;6676;45.192;5.722;2023-04-01T17:29:24;1.92;;;0.20;;
13222;SDS011;6676;45.192;5.722;2023-04-01T17:32:19;1.22;;;0.40;;
13222;SDS011;6676;45.192;5.722;2023-04-01T17:35:12;1.27;;;0.40;;
13222;SDS011;6676;45.192;5.722;2023-04-01T17:38:10;1.17;;;0.65;;
13222;SDS011;6676;45.192;5.722;2023-04-01T17:41:06;0.98;;;0.40;;
13222;SDS011;6676;45.192;5.722;2023-04-01T17:44:03;0.50;;;0.25;;
13222;SDS011;6676;45.192;5.722;2023-04-01T17:47:06;1.25;;;0.93;;
13222;SDS011;6676;45.192;5.722;2023-04-01T17:50:13;0.50;;;0.30;;
13222;SDS011;6676;45.192;5.722;2023-04-01T17:53:16;1.25;;;0.60;;
13222;SDS011;6676;45.192;5.722;2023-04-01T17:56:18;1.10;;;0.57;;
13222;SDS011;6676;45.192;5.722;2023-04-01T17:59:34;0.75;;;0.47;;
13222;SDS011;6676;45.192;5.722;2023-04-01T18:02:29;1.27;;;0.60;;
13222;SDS011;6676;45.192;5.722;2023-04-01T18:05:35;0.72;;;0.30;;
13222;SDS011;6676;45.192;5.722;2023-04-01T18:08:40;1.75;;;0.40;;
13222;SDS011;6676;45.192;5.722;2023-04-01T18:11:42;1.30;;;0.55;;
13222;SDS011;6676;45.192;5.722;2023-04-01T18:14:38;1.75;;;0.30;;
13222;SDS011;6676;45.192;5.722;2023-04-01T18:17:32;1.30;;;0.33;;
13222;SDS011;6676;45.192;5.722;2023-04-01T18:20:33;1.35;;;0.30;;
13222;SDS011;6676;45.192;5.722;2023-04-01T18:23:29;1.15;;;0.35;;
13222;SDS011;6676;45.192;5.722;2023-04-01T18:26:23;0.78;;;0.50;;
13222;SDS011;6676;45.192;5.722;2023-04-01T18:29:22;1.02;;;0.50;;
13222;SDS011;6676;45.192;5.722;2023-04-01T18:32:17;1.77;;;0.47;;
13222;SDS011;6676;45.192;5.722;2023-04-01T18:35:17;1.05;;;0.20;;
13222;SDS011;6676;45.192;5.722;2023-04-01T18:38:13;1.50;;;0.70;;
13222;SDS011;6676;45.192;5.722;2023-04-01T18:41:14;1.32;;;0.30;;
13222;SDS011;6676;45.192;5.722;2023-04-01T18:44:19;2.15;;;0.57;;
13222;SDS011;6676;45.192;5.722;2023-04-01T18:47:17;0.57;;;0.50;;
13222;SDS011;6676;45.192;5.722;2023-04-01T18:50:14;0.50;;;0.28;;
13222;SDS011;6676;45.192;5.722;2023-04-01T18:53:13;0.30;;;0.20;;
13222;SDS011;6676;45.192;5.722;2023-04-01T18:56:08;1.72;;;1.17;;
13222;SDS011;6676;45.192;5.722;2023-04-01T18:59:03;1.87;;;0.70;;
13222;SDS011;6676;45.192;5.722;2023-04-01T19:02:00;3.67;;;1.17;;
13222;SDS011;6676;45.192;5.722;2023-04-01T19:04:43;1.70;;;1.15;;
13222;SDS011;6676;45.192;5.722;2023-04-01T19:07:46;1.95;;;1.10;;
13222;SDS011;6676;45.192;5.722;2023-04-01T19:10:39;2.17;;;1.35;;
13222;SDS011;6676;45.192;5.722;2023-04-01T19:13:33;1.72;;;1.10;;
13222;SDS011;6676;45.192;5.722;2023-04-01T19:16:31;2.22;;;1.60;;
13222;SDS011;6676;45.192;5.722;2023-04-01T19:19:31;6.80;;;2.67;;
13222;SDS011;6676;45.192;5.722;2023-04-01T19:22:36;3.72;;;1.82;;
13222;SDS011;6676;45.192;5.722;2023-04-01T19:25:38;2.25;;;1.37;;
13222;SDS011;6676;45.192;5.722;2023-04-01T19:28:34;4.33;;;2.92;;
13222;SDS011;6676;45.192;5.722;2023-04-01T19:31:35;2.15;;;1.35;;
13222;SDS011;6676;45.192;5.722;2023-04-01T19:34:37;2.10;;;1.40;;
13222;SDS011;6676;45.192;5.722;2023-04-01T19:37:33;1.75;;;1.40;;
13222;SDS011;6676;45.192;5.722;2023-04-01T19:40:32;3.25;;;1.55;;
13222;SDS011;6676;45.192;5.722;2023-04-01T19:43:22;3.35;;;2.12;;
13222;SDS011;6676;45.192;5.722;2023-04-01T19:46:23;4.08;;;2.42;;
13222;SDS011;6676;45.192;5.722;2023-04-01T19:49:23;2.22;;;1.52;;
13222;SDS011;6676;45.192;5.722;2023-04-01T19:52:20;2.50;;;1.22;;
13222;SDS011;6676;45.192;5.722;2023-04-01T19:55:22;3.83;;;1.62;;
13222;SDS011;6676;45.192;5.722;2023-04-01T19:58:12;3.93;;;1.83;;
13222;SDS011;6676;45.192;5.722;2023-04-01T20:01:06;2.47;;;1.40;;
13222;SDS011;6676;45.192;5.722;2023-04-01T20:04:02;1.77;;;0.80;;
13222;SDS011;6676;45.192;5.722;2023-04-01T20:06:57;1.17;;;0.40;;
13222;SDS011;6676;45.192;5.722;2023-04-01T20:09:52;1.00;;;0.60;;
13222;SDS011;6676;45.192;5.722;2023-04-01T20:12:46;1.57;;;0.40;;
13222;SDS011;6676;45.192;5.722;2023-04-01T20:15:41;1.07;;;0.53;;
13222;SDS011;6676;45.192;5.722;2023-04-01T20:18:39;2.47;;;0.70;;
13222;SDS011;6676;45.192;5.722;2023-04-01T20:21:34;1.70;;;0.42;;
13222;SDS011;6676;45.192;5.722;2023-04-01T20:24:30;0.62;;;0.40;;
13222;SDS011;6676;45.192;5.722;2023-04-01T20:27:18;1.15;;;0.50;;